EJA1710 KFLL-KJAX
Flight info
| Callsign | EJA1710 |
|---|---|
| Flight time | 0h 55m |
| Altitude | 30000 |
| Route | FRSBE2 STYMY ORL/N0457F310 HAINY QUBEN2 |
| Aircraft | C25C/M-SDE2E3FGHRWXY/LB1 |
Departure
| Time | 2026-05-03 23:09 |
|---|---|
| Airport | Fort Lauderdale Hollywood International Airport (KFLL) |
Arrival
| Time | 2026-05-04 00:05 |
|---|---|
| Airport | Jacksonville International Airport (KJAX) |
| Time | Latitude | Longitude | Altitude | Speed | Heading |
|---|---|---|---|---|---|
| 2026-05-03 22:27 | 26.08049 | -80.14641 | 10 ft | 0 kts | 0° |
| 2026-05-03 22:31 | 26.08037 | -80.14637 | 10 ft | 2 kts | 313° |
| 2026-05-03 22:31 | 26.08032 | -80.14620 | 10 ft | 2 kts | 274° |
| 2026-05-03 22:31 | 26.08034 | -80.14609 | 10 ft | 0 kts | 236° |
| 2026-05-03 22:31 | 26.08033 | -80.14609 | 10 ft | 1 kts | 234° |
| 2026-05-03 22:32 | 26.08002 | -80.14627 | 10 ft | 8 kts | 185° |
| 2026-05-03 22:32 | 26.07946 | -80.14623 | 11 ft | 8 kts | 171° |
| 2026-05-03 22:32 | 26.07897 | -80.14621 | 12 ft | 5 kts | 180° |
| 2026-05-03 22:32 | 26.07885 | -80.14590 | 13 ft | 6 kts | 92° |
| 2026-05-03 22:33 | 26.07873 | -80.14541 | 12 ft | 7 kts | 140° |
| 2026-05-03 22:33 | 26.07855 | -80.14530 | 13 ft | 0 kts | 161° |
| 2026-05-03 22:35 | 26.07852 | -80.14529 | 13 ft | 3 kts | 161° |
| 2026-05-03 22:35 | 26.07816 | -80.14527 | 13 ft | 5 kts | 206° |
| 2026-05-03 22:35 | 26.07807 | -80.14594 | 13 ft | 16 kts | 270° |
| 2026-05-03 22:36 | 26.07809 | -80.14781 | 10 ft | 31 kts | 270° |
| 2026-05-03 22:36 | 26.07811 | -80.15050 | 8 ft | 36 kts | 270° |
| 2026-05-03 22:36 | 26.07812 | -80.15322 | 5 ft | 34 kts | 270° |
| 2026-05-03 22:36 | 26.07814 | -80.15578 | 7 ft | 32 kts | 271° |
| 2026-05-03 22:37 | 26.07815 | -80.15816 | 8 ft | 30 kts | 270° |
| 2026-05-03 22:37 | 26.07816 | -80.16036 | 12 ft | 27 kts | 271° |
| 2026-05-03 22:37 | 26.07817 | -80.16241 | 12 ft | 26 kts | 269° |
| 2026-05-03 22:37 | 26.07804 | -80.16438 | 12 ft | 25 kts | 269° |
| 2026-05-03 22:38 | 26.07805 | -80.16590 | 11 ft | 12 kts | 268° |
| 2026-05-03 22:38 | 26.07794 | -80.16628 | 10 ft | 1 kts | 229° |
| 2026-05-03 22:38 | 26.07791 | -80.16631 | 10 ft | 0 kts | 220° |
| 2026-05-03 23:08 | 26.07729 | -80.16641 | 9 ft | 17 kts | 169° |
| 2026-05-03 23:09 | 26.07696 | -80.16457 | 13 ft | 52 kts | 90° |
| 2026-05-03 23:09 | 26.07699 | -80.15656 | 122 ft | 148 kts | 89° |
| 2026-05-03 23:09 | 26.07641 | -80.14161 | 293 ft | 238 kts | 88° |
| 2026-05-03 23:09 | 26.07589 | -80.12215 | 1012 ft | 256 kts | 94° |
| 2026-05-03 23:10 | 26.07617 | -80.10174 | 1374 ft | 267 kts | 84° |
| 2026-05-03 23:10 | 26.08156 | -80.08211 | 1543 ft | 275 kts | 58° |
| 2026-05-03 23:10 | 26.09569 | -80.06782 | 1556 ft | 273 kts | 30° |
| 2026-05-03 23:10 | 26.11285 | -80.06016 | 1550 ft | 260 kts | 13° |
| 2026-05-03 23:11 | 26.12975 | -80.05476 | 1996 ft | 258 kts | 13° |
| 2026-05-03 23:11 | 26.14816 | -80.04924 | 2583 ft | 285 kts | 8° |
| 2026-05-03 23:11 | 26.16608 | -80.05074 | 3119 ft | 248 kts | 339° |
| 2026-05-03 23:11 | 26.18300 | -80.05668 | 3678 ft | 264 kts | 339° |
| 2026-05-03 23:12 | 26.20098 | -80.06352 | 4002 ft | 276 kts | 337° |
| 2026-05-03 23:12 | 26.21696 | -80.07212 | 4013 ft | 240 kts | 318° |
| 2026-05-03 23:12 | 26.22770 | -80.08545 | 4017 ft | 226 kts | 300° |
| 2026-05-03 23:12 | 26.23387 | -80.10116 | 4020 ft | 220 kts | 289° |
| 2026-05-03 23:13 | 26.23959 | -80.11682 | 4018 ft | 217 kts | 289° |
| 2026-05-03 23:13 | 26.24509 | -80.13233 | 4015 ft | 215 kts | 289° |
| 2026-05-03 23:13 | 26.25060 | -80.14779 | 4018 ft | 216 kts | 289° |
| 2026-05-03 23:13 | 26.25681 | -80.16331 | 4022 ft | 225 kts | 299° |
| 2026-05-03 23:14 | 26.26548 | -80.17787 | 4023 ft | 231 kts | 300° |
| 2026-05-03 23:14 | 26.27408 | -80.19316 | 4030 ft | 235 kts | 300° |
| 2026-05-03 23:14 | 26.28287 | -80.20866 | 4020 ft | 238 kts | 300° |
| 2026-05-03 23:14 | 26.29180 | -80.22436 | 4028 ft | 241 kts | 300° |
| 2026-05-03 23:15 | 26.30077 | -80.24018 | 4028 ft | 242 kts | 300° |
| 2026-05-03 23:15 | 26.30981 | -80.25602 | 4028 ft | 243 kts | 300° |
| 2026-05-03 23:15 | 26.31885 | -80.27203 | 4029 ft | 244 kts | 300° |
| 2026-05-03 23:15 | 26.32795 | -80.28801 | 4029 ft | 245 kts | 300° |
| 2026-05-03 23:16 | 26.33703 | -80.30411 | 4046 ft | 246 kts | 300° |
| 2026-05-03 23:16 | 26.34628 | -80.32037 | 4043 ft | 250 kts | 300° |
| 2026-05-03 23:16 | 26.35562 | -80.33682 | 4041 ft | 251 kts | 300° |
| 2026-05-03 23:16 | 26.36493 | -80.35331 | 4043 ft | 251 kts | 300° |
| 2026-05-03 23:17 | 26.37431 | -80.36979 | 4042 ft | 252 kts | 300° |
| 2026-05-03 23:17 | 26.38372 | -80.38636 | 4037 ft | 253 kts | 300° |
| 2026-05-03 23:17 | 26.39309 | -80.40305 | 4756 ft | 266 kts | 300° |
| 2026-05-03 23:17 | 26.40320 | -80.42087 | 5681 ft | 267 kts | 301° |
| 2026-05-03 23:18 | 26.41321 | -80.43847 | 6982 ft | 273 kts | 300° |
| 2026-05-03 23:18 | 26.42345 | -80.45669 | 8404 ft | 279 kts | 299° |
| 2026-05-03 23:18 | 26.43374 | -80.47488 | 9913 ft | 282 kts | 298° |
| 2026-05-03 23:18 | 26.44423 | -80.49343 | 11340 ft | 283 kts | 298° |
| 2026-05-03 23:19 | 26.45469 | -80.51197 | 12819 ft | 282 kts | 297° |
| 2026-05-03 23:19 | 26.46512 | -80.53038 | 14305 ft | 280 kts | 296° |
| 2026-05-03 23:19 | 26.47561 | -80.54850 | 15728 ft | 279 kts | 300° |
| 2026-05-03 23:19 | 26.49022 | -80.56312 | 17214 ft | 286 kts | 318° |
| 2026-05-03 23:20 | 26.50857 | -80.57233 | 18700 ft | 294 kts | 335° |
| 2026-05-03 23:20 | 26.52801 | -80.57850 | 20086 ft | 286 kts | 334° |
| 2026-05-03 23:20 | 26.54697 | -80.58447 | 21452 ft | 281 kts | 334° |
| 2026-05-03 23:20 | 26.56563 | -80.59034 | 22777 ft | 274 kts | 333° |
| 2026-05-03 23:21 | 26.58350 | -80.59595 | 23977 ft | 261 kts | 332° |
| 2026-05-03 23:21 | 26.60076 | -80.60146 | 25056 ft | 255 kts | 331° |
| 2026-05-03 23:21 | 26.61759 | -80.60684 | 26173 ft | 247 kts | 330° |
| 2026-05-03 23:21 | 26.63376 | -80.61192 | 27329 ft | 236 kts | 329° |
| 2026-05-03 23:22 | 26.66615 | -80.62241 | 28917 ft | 248 kts | 329° |
| 2026-05-03 23:22 | 26.68288 | -80.62770 | 29723 ft | 252 kts | 329° |
| 2026-05-03 23:22 | 26.70036 | -80.63340 | 30038 ft | 276 kts | 330° |
| 2026-05-03 23:23 | 26.71988 | -80.63979 | 30056 ft | 309 kts | 332° |
| 2026-05-03 23:23 | 26.74131 | -80.64658 | 30062 ft | 339 kts | 333° |
| 2026-05-03 23:23 | 26.76492 | -80.65396 | 30063 ft | 366 kts | 334° |
| 2026-05-03 23:23 | 26.79023 | -80.66195 | 30069 ft | 389 kts | 334° |
| 2026-05-03 23:24 | 26.81698 | -80.67050 | 30068 ft | 409 kts | 335° |
| 2026-05-03 23:24 | 26.84495 | -80.67942 | 30066 ft | 426 kts | 335° |
| 2026-05-03 23:24 | 26.87403 | -80.68865 | 30063 ft | 441 kts | 335° |
| 2026-05-03 23:24 | 26.90392 | -80.69817 | 30062 ft | 452 kts | 336° |
| 2026-05-03 23:25 | 26.96428 | -80.72069 | 30059 ft | 464 kts | 333° |
| 2026-05-03 23:25 | 27.02567 | -80.74353 | 30057 ft | 461 kts | 333° |
| 2026-05-03 23:26 | 27.08575 | -80.76645 | 30059 ft | 456 kts | 333° |
| 2026-05-03 23:26 | 27.14613 | -80.78930 | 30058 ft | 459 kts | 333° |
| 2026-05-03 23:27 | 27.20678 | -80.81230 | 30054 ft | 460 kts | 333° |
| 2026-05-03 23:27 | 27.26682 | -80.83509 | 30057 ft | 457 kts | 333° |
| 2026-05-03 23:28 | 27.32690 | -80.85801 | 30050 ft | 454 kts | 332° |
| 2026-05-03 23:28 | 27.38599 | -80.88245 | 30056 ft | 452 kts | 332° |
| 2026-05-03 23:29 | 27.44509 | -80.90663 | 30057 ft | 452 kts | 332° |
| 2026-05-03 23:29 | 27.50410 | -80.93097 | 30060 ft | 452 kts | 332° |
| 2026-05-03 23:30 | 27.56312 | -80.95527 | 30063 ft | 452 kts | 332° |
| 2026-05-03 23:30 | 27.62218 | -80.97964 | 30063 ft | 452 kts | 332° |
| 2026-05-03 23:31 | 27.68133 | -81.00407 | 30066 ft | 453 kts | 332° |
| 2026-05-03 23:31 | 27.74050 | -81.02855 | 30066 ft | 453 kts | 331° |
| 2026-05-03 23:32 | 27.79971 | -81.05307 | 30064 ft | 453 kts | 331° |
| 2026-05-03 23:32 | 27.85899 | -81.07765 | 30070 ft | 454 kts | 331° |
| 2026-05-03 23:33 | 27.91828 | -81.10224 | 30074 ft | 454 kts | 331° |
| 2026-05-03 23:33 | 27.97766 | -81.12691 | 30079 ft | 455 kts | 331° |
| 2026-05-03 23:34 | 28.03707 | -81.15157 | 30083 ft | 456 kts | 332° |
| 2026-05-03 23:34 | 28.09781 | -81.17341 | 30089 ft | 458 kts | 333° |
| 2026-05-03 23:35 | 28.15806 | -81.19540 | 30096 ft | 458 kts | 334° |
| 2026-05-03 23:35 | 28.21894 | -81.21731 | 30099 ft | 459 kts | 334° |
| 2026-05-03 23:36 | 28.27971 | -81.23938 | 30092 ft | 459 kts | 334° |
| 2026-05-03 23:36 | 28.34059 | -81.26145 | 30093 ft | 459 kts | 333° |
| 2026-05-03 23:37 | 28.40150 | -81.28359 | 30091 ft | 460 kts | 333° |
| 2026-05-03 23:37 | 28.46244 | -81.30575 | 30093 ft | 460 kts | 333° |
| 2026-05-03 23:38 | 28.52341 | -81.32796 | 30096 ft | 460 kts | 333° |
| 2026-05-03 23:38 | 28.58451 | -81.35022 | 30096 ft | 461 kts | 333° |
| 2026-05-03 23:39 | 28.64544 | -81.37281 | 30100 ft | 459 kts | 332° |
| 2026-05-03 23:39 | 28.70639 | -81.39588 | 29436 ft | 465 kts | 338° |
| 2026-05-03 23:40 | 28.73750 | -81.40202 | 28839 ft | 441 kts | 344° |
| 2026-05-03 23:40 | 28.76717 | -81.40451 | 28273 ft | 416 kts | 349° |
| 2026-05-03 23:40 | 28.79545 | -81.40392 | 27741 ft | 397 kts | 354° |
| 2026-05-03 23:40 | 28.82236 | -81.40066 | 27232 ft | 382 kts | 359° |
| 2026-05-03 23:41 | 28.84814 | -81.39520 | 26737 ft | 369 kts | 2° |
| 2026-05-03 23:41 | 28.87280 | -81.38977 | 26265 ft | 354 kts | 1° |
| 2026-05-03 23:41 | 28.89662 | -81.38446 | 25807 ft | 343 kts | 1° |
| 2026-05-03 23:41 | 28.91965 | -81.37850 | 25363 ft | 338 kts | 6° |
| 2026-05-03 23:42 | 28.94190 | -81.37069 | 24913 ft | 330 kts | 6° |
| 2026-05-03 23:42 | 28.96376 | -81.36434 | 24477 ft | 318 kts | 0° |
| 2026-05-03 23:42 | 28.98509 | -81.36204 | 24038 ft | 298 kts | 347° |
| 2026-05-03 23:42 | 29.00534 | -81.36389 | 23605 ft | 288 kts | 341° |
| 2026-05-03 23:43 | 29.02473 | -81.36667 | 23108 ft | 282 kts | 340° |
| 2026-05-03 23:43 | 29.04456 | -81.36866 | 22609 ft | 282 kts | 344° |
| 2026-05-03 23:43 | 29.06408 | -81.36967 | 22137 ft | 279 kts | 345° |
| 2026-05-03 23:43 | 29.08335 | -81.37075 | 21672 ft | 275 kts | 344° |
| 2026-05-03 23:44 | 29.10231 | -81.37207 | 21221 ft | 273 kts | 344° |
| 2026-05-03 23:44 | 29.12130 | -81.37352 | 20784 ft | 280 kts | 344° |
| 2026-05-03 23:44 | 29.14095 | -81.37487 | 20361 ft | 285 kts | 345° |
| 2026-05-03 23:44 | 29.16093 | -81.37620 | 19934 ft | 290 kts | 346° |
| 2026-05-03 23:45 | 29.18117 | -81.37754 | 19518 ft | 293 kts | 346° |
| 2026-05-03 23:45 | 29.20156 | -81.37892 | 19035 ft | 293 kts | 346° |
| 2026-05-03 23:45 | 29.22178 | -81.38029 | 18485 ft | 289 kts | 346° |
| 2026-05-03 23:45 | 29.24176 | -81.38163 | 17867 ft | 286 kts | 346° |
| 2026-05-03 23:46 | 29.26152 | -81.38301 | 17250 ft | 283 kts | 346° |
| 2026-05-03 23:46 | 29.28106 | -81.38433 | 16646 ft | 280 kts | 346° |
| 2026-05-03 23:46 | 29.30043 | -81.38564 | 16070 ft | 282 kts | 347° |
| 2026-05-03 23:46 | 29.32033 | -81.38707 | 15502 ft | 291 kts | 347° |
| 2026-05-03 23:47 | 29.34081 | -81.38842 | 14946 ft | 298 kts | 348° |
| 2026-05-03 23:47 | 29.36183 | -81.38984 | 14403 ft | 310 kts | 348° |
| 2026-05-03 23:47 | 29.38402 | -81.39133 | 13868 ft | 329 kts | 349° |
| 2026-05-03 23:47 | 29.40713 | -81.39291 | 13287 ft | 335 kts | 350° |
| 2026-05-03 23:48 | 29.43012 | -81.39431 | 13136 ft | 325 kts | 349° |
| 2026-05-03 23:48 | 29.45227 | -81.39577 | 13124 ft | 313 kts | 349° |
| 2026-05-03 23:48 | 29.47367 | -81.39722 | 13132 ft | 304 kts | 348° |
| 2026-05-03 23:48 | 29.49458 | -81.39867 | 13127 ft | 298 kts | 349° |
| 2026-05-03 23:49 | 29.51506 | -81.40007 | 13121 ft | 292 kts | 348° |
| 2026-05-03 23:49 | 29.53521 | -81.40140 | 13124 ft | 288 kts | 348° |
| 2026-05-03 23:49 | 29.55429 | -81.40567 | 13110 ft | 277 kts | 329° |
| 2026-05-03 23:49 | 29.56587 | -81.41278 | 13110 ft | 293 kts | 319° |
| 2026-05-03 23:50 | 29.58119 | -81.42912 | 13125 ft | 310 kts | 308° |
| 2026-05-03 23:50 | 29.59667 | -81.44723 | 13138 ft | 324 kts | 309° |
| 2026-05-03 23:50 | 29.61257 | -81.46589 | 13129 ft | 329 kts | 309° |
| 2026-05-03 23:50 | 29.62870 | -81.48473 | 13130 ft | 332 kts | 309° |
| 2026-05-03 23:51 | 29.64493 | -81.50379 | 13132 ft | 335 kts | 309° |
| 2026-05-03 23:51 | 29.66129 | -81.52292 | 13127 ft | 336 kts | 309° |
| 2026-05-03 23:51 | 29.67754 | -81.54197 | 13133 ft | 332 kts | 309° |
| 2026-05-03 23:51 | 29.69369 | -81.56082 | 13133 ft | 329 kts | 309° |
| 2026-05-03 23:52 | 29.70986 | -81.57936 | 13132 ft | 327 kts | 309° |
| 2026-05-03 23:52 | 29.72586 | -81.59781 | 13130 ft | 325 kts | 309° |
| 2026-05-03 23:52 | 29.74180 | -81.61620 | 13133 ft | 324 kts | 309° |
| 2026-05-03 23:52 | 29.75819 | -81.63397 | 13127 ft | 325 kts | 317° |
| 2026-05-03 23:53 | 29.77804 | -81.64594 | 13116 ft | 320 kts | 332° |
| 2026-05-03 23:53 | 29.79975 | -81.65126 | 13117 ft | 319 kts | 348° |
| 2026-05-03 23:53 | 29.82157 | -81.65331 | 13118 ft | 310 kts | 347° |
| 2026-05-03 23:53 | 29.84286 | -81.65523 | 13117 ft | 304 kts | 348° |
| 2026-05-03 23:54 | 29.86374 | -81.65700 | 13118 ft | 298 kts | 348° |
| 2026-05-03 23:54 | 29.88402 | -81.65881 | 13116 ft | 295 kts | 348° |
| 2026-05-03 23:54 | 29.90433 | -81.66071 | 13115 ft | 291 kts | 348° |
| 2026-05-03 23:54 | 29.92447 | -81.66250 | 13122 ft | 289 kts | 348° |
| 2026-05-03 23:55 | 29.94437 | -81.66473 | 13119 ft | 285 kts | 345° |
| 2026-05-03 23:55 | 29.96413 | -81.66733 | 13107 ft | 286 kts | 347° |
| 2026-05-03 23:55 | 29.98390 | -81.66935 | 13113 ft | 284 kts | 347° |
| 2026-05-03 23:55 | 30.00366 | -81.67135 | 12825 ft | 289 kts | 349° |
| 2026-05-03 23:56 | 30.02387 | -81.67191 | 12411 ft | 290 kts | 353° |
| 2026-05-03 23:56 | 30.04383 | -81.67223 | 12202 ft | 282 kts | 353° |
| 2026-05-03 23:56 | 30.06346 | -81.67274 | 11830 ft | 281 kts | 351° |
| 2026-05-03 23:56 | 30.08287 | -81.67416 | 11514 ft | 278 kts | 350° |
| 2026-05-03 23:57 | 30.10198 | -81.67573 | 11215 ft | 275 kts | 350° |
| 2026-05-03 23:57 | 30.12116 | -81.67783 | 10818 ft | 276 kts | 348° |
| 2026-05-03 23:57 | 30.14008 | -81.68071 | 10491 ft | 274 kts | 348° |
| 2026-05-03 23:57 | 30.15898 | -81.68391 | 10113 ft | 275 kts | 347° |
| 2026-05-03 23:58 | 30.17774 | -81.68725 | 9839 ft | 272 kts | 347° |
| 2026-05-03 23:58 | 30.19632 | -81.69108 | 9477 ft | 271 kts | 346° |
| 2026-05-03 23:58 | 30.21491 | -81.69497 | 9114 ft | 271 kts | 347° |
| 2026-05-03 23:58 | 30.23323 | -81.69895 | 8871 ft | 266 kts | 345° |
| 2026-05-03 23:59 | 30.25137 | -81.70342 | 8422 ft | 269 kts | 346° |
| 2026-05-03 23:59 | 30.26971 | -81.70779 | 8128 ft | 266 kts | 346° |
| 2026-05-03 23:59 | 30.28782 | -81.71233 | 7750 ft | 266 kts | 345° |
| 2026-05-03 23:59 | 30.30574 | -81.71737 | 7167 ft | 273 kts | 343° |
| 2026-05-04 00:00 | 30.32371 | -81.72270 | 6849 ft | 255 kts | 344° |
| 2026-05-04 00:00 | 30.34010 | -81.72783 | 6486 ft | 240 kts | 340° |
| 2026-05-04 00:00 | 30.35557 | -81.73484 | 5787 ft | 237 kts | 334° |
| 2026-05-04 00:00 | 30.37036 | -81.74331 | 5092 ft | 236 kts | 331° |
| 2026-05-04 00:01 | 30.38461 | -81.75198 | 4605 ft | 226 kts | 331° |
| 2026-05-04 00:01 | 30.39820 | -81.76037 | 4103 ft | 221 kts | 332° |
| 2026-05-04 00:01 | 30.41206 | -81.76901 | 3376 ft | 232 kts | 331° |
| 2026-05-04 00:01 | 30.42539 | -81.77827 | 3121 ft | 202 kts | 339° |
| 2026-05-04 00:02 | 30.43812 | -81.77881 | 2864 ft | 162 kts | 14° |
| 2026-05-04 00:02 | 30.44858 | -81.78012 | 2388 ft | 153 kts | 346° |
| 2026-05-04 00:02 | 30.45920 | -81.78374 | 2168 ft | 169 kts | 2° |
| 2026-05-04 00:02 | 30.46898 | -81.77681 | 1947 ft | 167 kts | 50° |
| 2026-05-04 00:03 | 30.47493 | -81.76687 | 1441 ft | 140 kts | 68° |
| 2026-05-04 00:03 | 30.47853 | -81.75600 | 1071 ft | 147 kts | 72° |
| 2026-05-04 00:03 | 30.48222 | -81.74534 | 823 ft | 146 kts | 70° |
| 2026-05-04 00:03 | 30.48572 | -81.73349 | 678 ft | 159 kts | 72° |
| 2026-05-04 00:04 | 30.48936 | -81.72179 | 517 ft | 146 kts | 70° |
| 2026-05-04 00:04 | 30.49266 | -81.71148 | 241 ft | 132 kts | 71° |
| 2026-05-04 00:04 | 30.49590 | -81.70092 | 97 ft | 142 kts | 72° |
| 2026-05-04 00:04 | 30.49867 | -81.69179 | 33 ft | 94 kts | 73° |
| 2026-05-04 00:05 | 30.50007 | -81.68690 | 31 ft | 36 kts | 75° |
| 2026-05-04 00:05 | 30.49982 | -81.68475 | 31 ft | 26 kts | 135° |
| 2026-05-04 00:05 | 30.49970 | -81.68281 | 30 ft | 27 kts | 70° |
| 2026-05-04 00:05 | 30.50035 | -81.68072 | 32 ft | 28 kts | 70° |
| 2026-05-04 00:06 | 30.49960 | -81.67946 | 30 ft | 24 kts | 160° |
| 2026-05-04 00:06 | 30.49832 | -81.67845 | 30 ft | 22 kts | 99° |
| 2026-05-04 00:06 | 30.49819 | -81.67780 | 31 ft | 0 kts | 98° |